Time;durP1;ratioP1;P1;durP2;ratioP2;P2;SDS_P1;SDS_P2;PMS_P1;PMS_P2;Temp;Humidity;BMP_temperature;BMP_pressure;BME280_temperature;BME280_humidity;BME280_pressure;Samples;Min_cycle;Max_cycle;Signal;HPM_P1;HPM_P2
2022/12/26 00:01:52;;;;;;;9.35;6.80;;;14.40;45.90;;;;;;4973609;28;20172;-51
2022/12/26 00:04:19;;;;;;;9.20;7.13;;;14.40;45.80;;;;;;4973541;28;20211;-52
2022/12/26 00:06:44;;;;;;;7.85;6.65;;;14.30;45.80;;;;;;4973650;28;20180;-51
2022/12/26 00:09:10;;;;;;;8.03;6.80;;;14.40;45.90;;;;;;4973480;28;20199;-52
2022/12/26 00:11:36;;;;;;;10.10;6.40;;;14.40;46.00;;;;;;4973656;28;20174;-52
2022/12/26 00:14:09;;;;;;;9.27;6.90;;;14.30;45.90;;;;;;4973276;28;20407;-52
2022/12/26 00:16:35;;;;;;;8.45;5.20;;;14.30;46.00;;;;;;4972986;28;20179;-52
2022/12/26 00:19:02;;;;;;;9.70;5.80;;;14.30;46.00;;;;;;4973408;28;20665;-52
2022/12/26 00:21:28;;;;;;;8.23;5.05;;;14.30;46.10;;;;;;4973405;28;20183;-52
2022/12/26 00:23:56;;;;;;;8.95;5.40;;;14.30;46.10;;;;;;4973094;28;20175;-52
2022/12/26 00:26:23;;;;;;;11.57;5.15;;;14.40;46.10;;;;;;4973282;28;20179;-52
2022/12/26 00:28:50;;;;;;;6.88;5.28;;;14.40;46.10;;;;;;4973275;28;20188;-52
2022/12/26 00:31:18;;;;;;;7.60;5.15;;;14.40;46.10;;;;;;4973318;28;20172;-52
2022/12/26 00:33:44;;;;;;;8.80;6.75;;;14.40;46.20;;;;;;4973146;28;20164;-52
2022/12/26 00:36:12;;;;;;;12.03;6.40;;;14.40;46.10;;;;;;4973344;28;20180;-52
2022/12/26 00:38:39;;;;;;;9.25;6.72;;;14.40;46.10;;;;;;4973216;28;20442;-51
2022/12/26 00:41:06;;;;;;;7.50;5.35;;;14.50;46.00;;;;;;4973171;28;20208;-52
2022/12/26 00:43:32;;;;;;;7.50;5.70;;;14.50;45.90;;;;;;4972996;28;20183;-52
2022/12/26 00:45:58;;;;;;;9.30;5.65;;;14.60;45.90;;;;;;4973129;28;20311;-52
2022/12/26 00:48:24;;;;;;;8.57;5.00;;;14.50;45.90;;;;;;4973086;28;20673;-53
2022/12/26 00:50:50;;;;;;;7.53;5.63;;;14.60;45.90;;;;;;4973115;28;20207;-52
2022/12/26 00:53:16;;;;;;;8.95;6.45;;;14.60;45.80;;;;;;4972917;28;20288;-52
2022/12/26 00:55:42;;;;;;;7.45;5.60;;;14.60;45.90;;;;;;4973050;28;20665;-52
2022/12/26 00:58:08;;;;;;;9.75;5.45;;;14.50;45.90;;;;;;4972813;28;20211;-52
2022/12/26 01:00:34;;;;;;;10.63;5.97;;;14.50;45.90;;;;;;4973095;28;20303;-52
2022/12/26 01:03:00;;;;;;;9.15;5.40;;;14.60;45.80;;;;;;4972765;28;20435;-52
2022/12/26 01:05:26;;;;;;;8.73;6.10;;;14.50;45.80;;;;;;4972949;28;20678;-51
2022/12/26 01:07:52;;;;;;;6.87;5.30;;;14.50;45.90;;;;;;4972888;28;20172;-51
2022/12/26 01:10:18;;;;;;;8.10;6.00;;;14.70;46.00;;;;;;4972909;28;20407;-52
2022/12/26 01:12:44;;;;;;;6.38;5.30;;;14.50;46.70;;;;;;4972684;28;20882;-52
2022/12/26 01:15:10;;;;;;;6.00;5.10;;;14.50;45.90;;;;;;4972883;28;20188;-52
2022/12/26 01:17:36;;;;;;;9.20;6.30;;;14.50;45.70;;;;;;4971543;28;20183;-52
2022/12/26 01:20:02;;;;;;;12.30;6.97;;;14.50;45.80;;;;;;4972855;28;20414;-52
2022/12/26 01:22:28;;;;;;;8.15;6.45;;;14.50;45.80;;;;;;4972627;28;20168;-52
2022/12/26 01:24:55;;;;;;;8.73;6.10;;;14.50;45.70;;;;;;4972684;28;20697;-52
2022/12/26 01:27:21;;;;;;;9.13;6.70;;;14.40;45.80;;;;;;4974448;28;20175;-52
2022/12/26 01:29:47;;;;;;;9.80;6.90;;;14.40;45.80;;;;;;4976403;28;20199;-51
2022/12/26 01:32:13;;;;;;;9.53;6.57;;;14.40;45.90;;;;;;4976202;28;20187;-52
2022/12/26 01:34:39;;;;;;;9.10;5.87;;;14.40;46.00;;;;;;4976432;28;20542;-52
2022/12/26 01:37:04;;;;;;;8.20;6.63;;;14.40;45.90;;;;;;4976383;28;20176;-52
2022/12/26 01:39:30;;;;;;;11.10;6.83;;;14.40;45.80;;;;;;4976122;28;20207;-52
2022/12/26 01:41:56;;;;;;;8.20;6.10;;;14.40;45.90;;;;;;4976032;28;20634;-52
2022/12/26 01:44:59;;;;;;;9.33;7.47;;;14.40;45.80;;;;;;4976161;28;20203;-52
2022/12/26 01:47:38;;;;;;;8.73;6.45;;;14.50;45.80;;;;;;4976172;28;20649;-51
2022/12/26 01:50:06;;;;;;;8.30;6.50;;;14.40;45.70;;;;;;4976101;28;20191;-52
2022/12/26 01:52:41;;;;;;;11.60;7.32;;;14.40;45.70;;;;;;4975892;28;20214;-52
2022/12/26 01:55:12;;;;;;;7.93;5.95;;;14.40;45.70;;;;;;4976042;28;20705;-52
2022/12/26 01:57:41;;;;;;;11.50;9.13;;;14.40;45.70;;;;;;4975914;28;20207;-52
2022/12/26 02:00:08;;;;;;;8.43;5.50;;;14.40;46.40;;;;;;4975906;28;20673;-52
2022/12/26 02:05:32;;;;;;;12.18;7.53;;;14.40;45.80;;;;;;4976169;28;20180;-52
2022/12/26 02:05:34;;;;;;;9.65;7.15;;;14.40;45.70;;;;;;4975760;28;20232;-52
2022/12/26 02:08:04;;;;;;;8.75;6.55;;;14.40;45.70;;;;;;4975709;28;20266;-52
2022/12/26 02:10:35;;;;;;;8.05;6.35;;;14.40;45.70;;;;;;4975685;28;20185;-52
2022/12/26 02:13:01;;;;;;;7.85;6.00;;;14.40;45.90;;;;;;4975688;28;20195;-52
2022/12/26 02:15:28;;;;;;;7.22;5.45;;;14.40;45.90;;;;;;4975625;28;20176;-52
2022/12/26 02:17:53;;;;;;;9.50;5.78;;;14.40;46.00;;;;;;4975805;28;20172;-52
2022/12/26 02:20:30;;;;;;;8.00;5.97;;;14.40;45.90;;;;;;4975525;28;20202;-52
2022/12/26 02:23:23;;;;;;;7.82;5.95;;;14.40;45.80;;;;;;4975360;28;20171;-52
2022/12/26 02:26:10;;;;;;;8.80;5.97;;;14.50;45.70;;;;;;4975357;28;20191;-52
2022/12/26 02:29:00;;;;;;;8.65;6.32;;;14.40;45.60;;;;;;4975380;28;20267;-52
2022/12/26 02:31:37;;;;;;;9.70;6.63;;;14.40;45.60;;;;;;4975306;28;20201;-52
2022/12/26 02:34:14;;;;;;;8.70;6.03;;;14.40;45.70;;;;;;4975133;28;20170;-52
2022/12/26 02:36:51;;;;;;;8.68;6.55;;;14.40;45.60;;;;;;4975341;28;20211;-52
2022/12/26 02:39:50;;;;;;;9.73;5.90;;;14.40;45.70;;;;;;4974632;28;20243;-52
2022/12/26 02:42:25;;;;;;;9.57;6.10;;;14.30;45.80;;;;;;4974988;28;20179;-52
2022/12/26 02:48:02;;;;;;;8.75;6.60;;;14.30;45.90;;;;;;4975014;28;20650;-52
2022/12/26 03:13:24;;;;;;;8.68;6.35;;;14.40;45.60;;;;;;4974474;28;20252;-52
2022/12/26 03:18:42;;;;;;;10.75;7.40;;;14.40;45.60;;;;;;4974488;28;20222;-52
2022/12/26 03:21:09;;;;;;;8.93;5.93;;;14.40;45.50;;;;;;4974724;28;20168;-52
2022/12/26 03:23:38;;;;;;;12.80;6.72;;;14.30;45.60;;;;;;4974075;28;20199;-52
2022/12/26 03:30:47;;;;;;;8.40;7.30;;;14.30;45.60;;;;;;4974302;28;20280;-52
2022/12/26 03:31:41;;;;;;;6.68;5.07;;;14.30;45.70;;;;;;4974106;28;20186;-52
2022/12/26 03:34:16;;;;;;;7.00;5.10;;;14.30;45.80;;;;;;4973960;28;20250;-52
2022/12/26 03:37:24;;;;;;;8.35;5.95;;;14.30;45.80;;;;;;4974193;28;20403;-52
2022/12/26 04:19:43;;;;;;;8.13;4.93;;;14.30;45.40;;;;;;4901534;29;20677;-52
2022/12/26 04:44:42;;;;;;;2.10;1.42;;;14.00;47.10;;;;;;4973147;28;20207;-52
2022/12/26 04:47:09;;;;;;;3.20;1.55;;;14.20;47.60;;;;;;4973252;28;20222;-52
2022/12/26 04:52:53;;;;;;;2.55;1.23;;;14.70;46.70;;;;;;4972915;28;20230;-52
2022/12/26 04:55:16;;;;;;;2.15;1.60;;;14.90;46.50;;;;;;4972961;28;20184;-52
2022/12/26 04:57:42;;;;;;;4.18;2.28;;;15.10;45.80;;;;;;4972948;28;20171;-52
2022/12/26 05:00:08;;;;;;;2.60;1.60;;;15.20;45.40;;;;;;4973111;28;20728;-52
2022/12/26 05:10:48;;;;;;;3.33;1.40;;;15.70;44.50;;;;;;4976849;28;20641;-52
2022/12/26 05:13:13;;;;;;;2.33;1.27;;;15.70;44.10;;;;;;4976559;28;20180;-52
2022/12/26 05:29:31;;;;;;;2.15;1.95;;;16.10;43.60;;;;;;4976519;28;20296;-52
2022/12/26 05:31:56;;;;;;;2.47;1.70;;;16.10;43.80;;;;;;4976223;28;20667;-52
2022/12/26 05:34:22;;;;;;;2.27;1.80;;;16.10;43.70;;;;;;4976419;28;20637;-52
2022/12/26 05:36:52;;;;;;;2.40;1.60;;;16.10;43.40;;;;;;4976320;28;20227;-52
2022/12/26 05:39:17;;;;;;;3.15;2.53;;;16.20;43.30;;;;;;4976212;28;20266;-52
2022/12/26 05:41:43;;;;;;;3.13;2.00;;;16.20;43.00;;;;;;4976221;28;20258;-52
2022/12/26 05:44:10;;;;;;;5.07;2.10;;;16.20;43.30;;;;;;4976032;28;20415;-52
2022/12/26 05:46:37;;;;;;;3.00;2.03;;;16.20;42.80;;;;;;4976202;28;21061;-52
2022/12/26 05:49:03;;;;;;;3.92;2.13;;;16.20;43.30;;;;;;4976103;28;20188;-52
2022/12/26 05:51:29;;;;;;;3.05;1.70;;;16.30;43.10;;;;;;4976039;28;20630;-52
2022/12/26 05:53:55;;;;;;;2.37;1.90;;;16.30;42.90;;;;;;4975875;28;20184;-52
2022/12/26 05:56:21;;;;;;;4.60;2.30;;;16.30;42.70;;;;;;4975984;28;20754;-52
2022/12/26 05:58:53;;;;;;;4.78;1.95;;;16.30;42.80;;;;;;4975759;28;20578;-52
2022/12/26 06:01:19;;;;;;;2.58;2.20;;;16.30;42.30;;;;;;4975934;28;20634;-52
2022/12/26 06:03:47;;;;;;;3.05;2.13;;;16.30;42.90;;;;;;4975667;28;20211;-52
2022/12/26 06:06:14;;;;;;;3.80;2.45;;;16.40;42.30;;;;;;4975681;28;20227;-52
2022/12/26 06:08:39;;;;;;;3.55;2.40;;;16.40;42.30;;;;;;4975763;28;20553;-52
2022/12/26 06:11:07;;;;;;;6.40;2.37;;;16.40;42.40;;;;;;4975824;28;20255;-52
2022/12/26 06:13:33;;;;;;;2.60;1.65;;;16.30;42.70;;;;;;4974595;28;20589;-52
2022/12/26 06:16:07;;;;;;;5.70;2.13;;;16.30;42.70;;;;;;4975597;28;20262;-52
2022/12/26 06:18:33;;;;;;;4.65;2.38;;;16.40;42.10;;;;;;4975523;28;20423;-52
2022/12/26 06:20:59;;;;;;;3.80;2.17;;;16.40;42.10;;;;;;4975475;28;20246;-52
2022/12/26 06:23:24;;;;;;;3.63;2.67;;;16.50;42.60;;;;;;4975242;28;20461;-52
2022/12/26 06:25:55;;;;;;;3.90;1.80;;;16.50;42.30;;;;;;4975508;28;20225;-52
2022/12/26 06:28:22;;;;;;;6.30;2.45;;;16.50;41.90;;;;;;4975386;28;20682;-52
2022/12/26 06:30:48;;;;;;;12.77;2.25;;;16.50;42.10;;;;;;4975401;28;20303;-52
2022/12/26 06:33:14;;;;;;;4.87;2.23;;;16.50;42.30;;;;;;4975021;28;20254;-52
2022/12/26 06:35:39;;;;;;;4.63;1.63;;;16.50;42.30;;;;;;4975223;28;20411;-52
2022/12/26 06:38:05;;;;;;;3.57;2.30;;;16.50;42.00;;;;;;4975176;28;20188;-52
2022/12/26 06:40:31;;;;;;;5.07;2.70;;;16.50;42.10;;;;;;4975208;28;20184;-52
2022/12/26 06:42:58;;;;;;;4.65;2.75;;;16.50;42.40;;;;;;4974873;28;20200;-52
2022/12/26 06:45:23;;;;;;;3.47;2.50;;;16.50;42.30;;;;;;4974971;28;20202;-52
2022/12/26 06:47:49;;;;;;;4.53;2.43;;;16.50;42.20;;;;;;4974971;28;20176;-52
2022/12/26 06:50:15;;;;;;;3.00;2.17;;;16.50;42.20;;;;;;4974951;28;20164;-52
2022/12/26 06:52:40;;;;;;;3.77;2.17;;;16.50;42.10;;;;;;4974828;28;20689;-52
2022/12/26 06:55:06;;;;;;;2.50;2.10;;;16.40;42.10;;;;;;4974930;28;20239;-52
2022/12/26 06:57:32;;;;;;;3.65;2.28;;;16.40;42.40;;;;;;4974989;28;20258;-52
2022/12/26 06:59:58;;;;;;;2.70;2.30;;;16.40;42.50;;;;;;4974821;28;20295;-52
2022/12/26 07:02:24;;;;;;;3.90;2.33;;;16.40;42.50;;;;;;4974489;28;20634;-52
2022/12/26 07:04:49;;;;;;;3.20;2.50;;;16.50;42.90;;;;;;4974620;28;20234;-52
2022/12/26 07:07:15;;;;;;;3.50;2.30;;;16.50;42.20;;;;;;4974725;28;20171;-52
2022/12/26 07:09:41;;;;;;;3.10;1.90;;;16.50;42.20;;;;;;4974594;28;20207;-52
2022/12/26 07:12:06;;;;;;;4.87;2.27;;;16.50;42.10;;;;;;4974410;28;20177;-52
2022/12/26 07:14:32;;;;;;;3.10;2.50;;;16.50;42.00;;;;;;4974506;28;20247;-52
2022/12/26 07:16:58;;;;;;;4.20;1.83;;;16.40;42.10;;;;;;4974462;28;20247;-52
2022/12/26 07:19:24;;;;;;;3.00;2.17;;;16.40;42.30;;;;;;4974364;28;20762;-52
2022/12/26 07:21:49;;;;;;;2.93;2.30;;;16.40;42.10;;;;;;4974291;28;20216;-52
2022/12/26 07:24:17;;;;;;;4.17;2.00;;;16.40;42.20;;;;;;4974147;28;20172;-52
2022/12/26 07:26:43;;;;;;;4.95;1.80;;;16.30;42.10;;;;;;4974395;28;20164;-52
2022/12/26 07:29:11;;;;;;;4.00;2.05;;;16.30;42.20;;;;;;4974242;28;20891;-52
2022/12/26 07:31:36;;;;;;;3.78;1.98;;;16.30;42.50;;;;;;4974184;28;20168;-52
2022/12/26 07:34:02;;;;;;;3.97;1.97;;;16.30;42.50;;;;;;4974007;28;20586;-52
2022/12/26 07:36:28;;;;;;;3.13;2.13;;;16.20;42.30;;;;;;4974196;28;20944;-52
2022/12/26 07:38:54;;;;;;;2.70;1.80;;;16.20;42.20;;;;;;4974095;28;20271;-52
2022/12/26 07:44:05;;;;;;;2.40;2.20;;;16.20;42.40;;;;;;4973717;28;20643;-52
2022/12/26 07:46:31;;;;;;;5.22;2.00;;;16.20;42.30;;;;;;4973969;28;20203;-52
2022/12/26 07:48:57;;;;;;;4.15;2.35;;;16.20;42.30;;;;;;4973919;28;20196;-52
2022/12/26 07:51:23;;;;;;;2.90;2.00;;;16.20;42.50;;;;;;4973894;28;20178;-52
2022/12/26 07:53:49;;;;;;;4.03;2.20;;;16.20;42.30;;;;;;4973581;28;20709;-52
2022/12/26 07:56:15;;;;;;;2.83;2.10;;;16.10;42.70;;;;;;4973744;28;20497;-53
2022/12/26 07:58:41;;;;;;;3.30;2.40;;;16.20;42.60;;;;;;4973495;28;20217;-52
2022/12/26 08:01:07;;;;;;;2.93;1.90;;;16.20;42.50;;;;;;4973765;28;20231;-52
2022/12/26 08:03:33;;;;;;;3.92;2.25;;;16.30;42.10;;;;;;4973422;28;20538;-52
2022/12/26 08:05:59;;;;;;;5.43;1.98;;;16.30;42.20;;;;;;4973493;28;20203;-52
2022/12/26 08:08:25;;;;;;;3.17;2.25;;;16.40;42.10;;;;;;4973605;28;20188;-52
2022/12/26 08:11:01;;;;;;;2.73;2.43;;;16.40;42.00;;;;;;4973608;28;20172;-52
2022/12/26 08:13:28;;;;;;;4.85;2.60;;;16.40;42.00;;;;;;4973333;28;20250;-52
2022/12/26 08:15:55;;;;;;;4.97;2.15;;;16.40;41.80;;;;;;5017442;23;20217;-52
2022/12/26 08:18:21;;;;;;;2.90;1.83;;;16.50;42.10;;;;;;5032097;28;20170;-53
2022/12/26 08:20:47;;;;;;;3.00;1.90;;;16.50;41.90;;;;;;5032119;28;20181;-52
2022/12/26 08:23:13;;;;;;;3.25;2.08;;;16.50;41.60;;;;;;5031982;28;20166;-53
2022/12/26 08:25:39;;;;;;;3.47;2.27;;;16.50;41.90;;;;;;5020026;28;20297;-52
2022/12/26 08:28:05;;;;;;;5.93;2.10;;;16.60;41.70;;;;;;5012362;28;20547;-53
2022/12/26 08:30:30;;;;;;;5.20;2.95;;;16.60;41.30;;;;;;5012363;28;20163;-53
2022/12/26 08:32:56;;;;;;;3.83;2.00;;;16.60;41.00;;;;;;5012077;28;20171;-52
2022/12/26 08:35:22;;;;;;;2.40;1.70;;;16.60;41.50;;;;;;5012161;28;20214;-53
2022/12/26 08:37:48;;;;;;;3.10;1.80;;;16.60;41.20;;;;;;5011769;28;20232;-53
2022/12/26 08:40:13;;;;;;;2.57;1.90;;;16.70;41.30;;;;;;5012245;28;20225;-52
2022/12/26 08:42:39;;;;;;;2.80;1.90;;;16.70;41.50;;;;;;5011978;28;20181;-52
2022/12/26 08:45:05;;;;;;;3.30;2.30;;;16.80;41.00;;;;;;5012034;28;20206;-53
2022/12/26 08:47:31;;;;;;;2.28;1.65;;;16.70;40.70;;;;;;5012113;28;20624;-52
2022/12/26 08:49:56;;;;;;;3.10;1.77;;;16.60;41.20;;;;;;5012091;28;20592;-52
2022/12/26 08:52:22;;;;;;;2.37;2.00;;;16.70;41.20;;;;;;5011904;28;20171;-52
2022/12/26 08:54:48;;;;;;;3.07;2.17;;;16.60;41.40;;;;;;5012103;28;20241;-52
2022/12/26 08:57:14;;;;;;;4.27;2.10;;;16.60;41.50;;;;;;5012015;28;20636;-52
2022/12/26 08:59:40;;;;;;;7.00;2.38;;;16.70;41.40;;;;;;5012056;28;20194;-53
2022/12/26 09:02:08;;;;;;;2.72;2.00;;;16.70;41.20;;;;;;5011707;28;20194;-53
2022/12/26 09:04:34;;;;;;;3.88;1.80;;;16.80;41.20;;;;;;5011806;28;20202;-52
2022/12/26 09:07:00;;;;;;;4.13;2.60;;;16.90;41.20;;;;;;5011886;28;20163;-52
2022/12/26 09:09:25;;;;;;;3.37;1.90;;;17.00;40.80;;;;;;5012012;28;20463;-52
2022/12/26 09:11:51;;;;;;;4.47;2.30;;;17.00;41.00;;;;;;5011723;28;20182;-52
2022/12/26 09:14:17;;;;;;;6.90;2.45;;;17.10;40.60;;;;;;5011749;28;20174;-53
2022/12/26 09:16:45;;;;;;;3.80;1.70;;;17.20;40.90;;;;;;5011699;28;20182;-53
2022/12/26 09:19:13;;;;;;;3.05;1.90;;;17.20;40.70;;;;;;5011815;28;20271;-53
2022/12/26 09:21:39;;;;;;;1.85;1.20;;;17.30;40.30;;;;;;5011851;28;20171;-52
2022/12/26 09:24:09;;;;;;;2.40;2.00;;;17.40;39.40;;;;;;5011619;28;20159;-53
2022/12/26 09:26:35;;;;;;;2.80;1.80;;;17.50;39.60;;;;;;4994036;28;20210;-53
2022/12/26 09:29:01;;;;;;;3.93;1.97;;;17.70;40.10;;;;;;5011680;28;20543;-52
2022/12/26 09:31:30;;;;;;;4.10;2.50;;;17.80;38.90;;;;;;5011621;28;20398;-53
2022/12/26 09:33:56;;;;;;;5.18;1.95;;;17.80;39.20;;;;;;5011479;28;20405;-53
2022/12/26 09:36:24;;;;;;;2.83;2.00;;;18.00;38.30;;;;;;5011665;28;20282;-53
2022/12/26 09:38:50;;;;;;;4.05;2.45;;;18.00;39.40;;;;;;5011633;28;20201;-53
2022/12/26 09:41:40;;;;;;;2.83;1.77;;;18.10;38.80;;;;;;5011548;28;20178;-53
2022/12/26 09:44:29;;;;;;;5.97;2.38;;;18.20;38.90;;;;;;5011377;28;20401;-53
2022/12/26 09:47:21;;;;;;;3.17;1.90;;;18.20;38.40;;;;;;5011582;28;20269;-53
2022/12/26 09:49:59;;;;;;;3.53;1.98;;;18.00;38.50;;;;;;5013778;28;20171;-53
2022/12/26 09:53:10;;;;;;;4.38;2.45;;;17.80;38.70;;;;;;5014783;28;20178;-52
2022/12/26 09:55:39;;;;;;;4.18;2.00;;;17.70;39.20;;;;;;4935119;29;20584;-53
2022/12/26 09:58:30;;;;;;;4.38;2.20;;;17.60;39.20;;;;;;4935187;29;20547;-53
2022/12/26 10:01:15;;;;;;;3.20;2.20;;;17.50;39.60;;;;;;4935132;29;20269;-52
2022/12/26 10:03:57;;;;;;;2.90;2.20;;;17.30;39.50;;;;;;4934825;29;20201;-53
2022/12/26 10:07:12;;;;;;;5.72;2.42;;;17.40;39.50;;;;;;4934896;29;20213;-53
2022/12/26 10:09:41;;;;;;;3.13;2.35;;;17.40;39.70;;;;;;4927388;29;20201;-53
2022/12/26 10:12:15;;;;;;;2.10;1.65;;;17.50;39.20;;;;;;4934693;29;20571;-53
2022/12/26 10:14:54;;;;;;;3.60;2.40;;;17.50;39.70;;;;;;4934685;29;20291;-53
2022/12/26 10:17:40;;;;;;;3.83;2.50;;;17.50;39.50;;;;;;4934686;29;20599;-53
2022/12/26 10:20:12;;;;;;;2.30;1.70;;;17.40;39.50;;;;;;4934860;29;20185;-52
2022/12/26 10:23:00;;;;;;;2.58;1.80;;;17.30;40.60;;;;;;4934666;29;20261;-53
2022/12/26 10:25:46;;;;;;;3.28;2.40;;;17.30;41.20;;;;;;4947718;28;20677;-52
2022/12/26 10:28:27;;;;;;;5.13;2.53;;;17.20;41.30;;;;;;5014424;28;20194;-52
2022/12/26 10:30:56;;;;;;;5.80;2.38;;;17.00;41.30;;;;;;5014389;28;20167;-52
2022/12/26 10:33:40;;;;;;;3.33;2.28;;;17.00;41.30;;;;;;5014112;28;20181;-52
2022/12/26 10:36:16;;;;;;;3.13;1.45;;;16.90;42.00;;;;;;5014092;28;20194;-53
2022/12/26 10:38:45;;;;;;;2.63;2.20;;;17.00;42.00;;;;;;5014235;28;20551;-53
2022/12/26 10:41:39;;;;;;;3.65;1.88;;;17.00;41.40;;;;;;5014076;28;20177;-53
2022/12/26 10:44:04;;;;;;;4.35;2.72;;;17.20;41.70;;;;;;5005960;28;20729;-53
2022/12/26 10:47:08;;;;;;;3.33;2.47;;;17.20;41.10;;;;;;5013837;28;20238;-53
2022/12/26 10:49:34;;;;;;;2.72;2.00;;;17.30;40.90;;;;;;4934435;29;20422;-53
2022/12/26 10:52:02;;;;;;;5.10;2.53;;;17.30;41.10;;;;;;4934027;29;20177;-53
2022/12/26 10:54:28;;;;;;;6.03;2.50;;;17.50;41.30;;;;;;4934237;29;20421;-53
2022/12/26 10:56:56;;;;;;;4.57;2.65;;;17.60;40.40;;;;;;4934060;29;20372;-53
2022/12/26 10:59:38;;;;;;;3.35;2.40;;;16.40;39.80;;;;;;4933668;29;20582;-53
2022/12/26 11:02:22;;;;;;;4.68;1.67;;;17.90;39.60;;;;;;4933884;29;20205;-53
2022/12/26 11:05:10;;;;;;;2.95;2.15;;;17.80;40.80;;;;;;4933902;29;20257;-53
2022/12/26 11:07:59;;;;;;;8.23;2.15;;;17.80;40.00;;;;;;4934027;29;20184;-53
2022/12/26 11:10:28;;;;;;;2.65;2.30;;;17.80;40.00;;;;;;4933265;29;20181;-53
2022/12/26 11:12:58;;;;;;;3.83;2.08;;;17.80;39.90;;;;;;4933610;29;20677;-53
2022/12/26 11:15:51;;;;;;;4.00;2.35;;;17.80;40.20;;;;;;4933676;29;20256;-53
2022/12/26 11:18:30;;;;;;;3.95;2.25;;;17.90;40.30;;;;;;4933781;29;20274;-53
2022/12/26 11:21:19;;;;;;;2.78;1.85;;;18.00;40.00;;;;;;4933728;29;20546;-53
2022/12/26 11:23:51;;;;;;;2.95;2.53;;;18.00;39.90;;;;;;4980037;28;20178;-53
2022/12/26 11:26:28;;;;;;;3.15;2.00;;;18.10;39.70;;;;;;5013113;28;20237;-53
2022/12/26 11:29:12;;;;;;;5.13;1.80;;;18.10;39.50;;;;;;5013270;28;20198;-53
2022/12/26 11:31:40;;;;;;;3.75;2.00;;;18.30;39.30;;;;;;5013266;28;20178;-53
2022/12/26 11:34:17;;;;;;;2.30;1.60;;;18.20;38.90;;;;;;4995490;28;20209;-53
2022/12/26 11:36:50;;;;;;;3.97;2.28;;;18.20;38.50;;;;;;5013153;28;20170;-53
2022/12/26 11:39:29;;;;;;;2.60;1.80;;;18.20;39.30;;;;;;5013122;28;20185;-53
2022/12/26 11:41:56;;;;;;;3.42;2.17;;;18.10;38.90;;;;;;5012971;28;20170;-53
2022/12/26 11:44:33;;;;;;;2.00;1.70;;;17.90;39.10;;;;;;5012871;28;20171;-53
2022/12/26 11:47:09;;;;;;;3.50;2.30;;;17.90;39.60;;;;;;5012972;28;20162;-53
2022/12/26 11:49:38;;;;;;;5.05;2.40;;;17.90;39.50;;;;;;5012901;28;20201;-53
2022/12/26 11:52:37;;;;;;;2.40;1.77;;;17.90;39.00;;;;;;5012716;28;20173;-53
2022/12/26 11:55:21;;;;;;;2.78;2.22;;;18.00;38.90;;;;;;5012688;28;20235;-53
2022/12/26 11:58:20;;;;;;;2.42;1.33;;;17.90;39.00;;;;;;5012708;28;20233;-53
2022/12/26 12:00:48;;;;;;;2.67;1.52;;;17.90;39.30;;;;;;5012640;28;20651;-53
2022/12/26 12:03:14;;;;;;;3.72;2.40;;;17.70;39.40;;;;;;5012590;28;20261;-53
2022/12/26 12:15:51;;;;;;;2.05;1.40;;;17.30;39.90;;;;;;5012525;28;20212;-52
2022/12/26 12:18:26;;;;;;;2.58;1.60;;;17.20;40.30;;;;;;5012535;28;20205;-52
2022/12/26 12:21:42;;;;;;;2.50;1.77;;;17.20;40.10;;;;;;5012441;28;20180;-52
2022/12/26 12:24:29;;;;;;;2.10;1.75;;;17.30;40.20;;;;;;4995113;28;20201;-52
2022/12/26 12:27:28;;;;;;;1.60;1.15;;;17.30;40.00;;;;;;5012340;28;20656;-52
2022/12/26 12:30:17;;;;;;;2.90;1.77;;;17.30;39.80;;;;;;5012304;28;20517;-52
2022/12/26 12:33:21;;;;;;;7.43;2.08;;;17.30;40.20;;;;;;5012055;28;20166;-52
2022/12/26 12:35:59;;;;;;;3.47;2.20;;;17.20;40.00;;;;;;5012228;28;20182;-52
2022/12/26 12:38:41;;;;;;;4.82;1.10;;;17.00;40.50;;;;;;5012235;28;20166;-52
2022/12/26 12:41:22;;;;;;;2.03;1.40;;;17.00;40.60;;;;;;5012173;28;20166;-52
2022/12/26 12:44:09;;;;;;;4.70;1.60;;;17.10;40.60;;;;;;5011962;28;20171;-52
2022/12/26 12:47:02;;;;;;;2.50;2.10;;;17.10;40.40;;;;;;5012090;28;20206;-52
2022/12/26 12:49:52;;;;;;;2.60;1.70;;;16.90;40.70;;;;;;5012212;28;20322;-52
2022/12/26 12:52:37;;;;;;;2.40;1.70;;;17.00;40.70;;;;;;5011871;28;20170;-52
2022/12/26 12:55:21;;;;;;;1.98;1.40;;;17.00;40.80;;;;;;5011955;28;20198;-52
2022/12/26 12:58:05;;;;;;;2.15;1.40;;;17.00;41.00;;;;;;5012032;28;20250;-52
2022/12/26 13:00:44;;;;;;;5.57;1.40;;;16.90;41.00;;;;;;5012072;28;20645;-52
2022/12/26 13:03:25;;;;;;;2.40;1.50;;;16.80;41.00;;;;;;5011710;28;20675;-52
2022/12/26 13:06:03;;;;;;;2.38;1.50;;;16.70;41.60;;;;;;5011928;28;20233;-52
2022/12/26 13:08:44;;;;;;;2.10;1.63;;;16.60;42.90;;;;;;5012003;28;20170;-52
2022/12/26 13:11:25;;;;;;;1.50;0.80;;;16.40;45.50;;;;;;5011867;28;20189;-52
2022/12/26 13:13:59;;;;;;;3.55;1.00;;;16.10;44.60;;;;;;5011683;28;20169;-52
2022/12/26 13:16:30;;;;;;;1.52;0.75;;;15.80;45.50;;;;;;5011776;28;20205;-52
2022/12/26 13:19:04;;;;;;;1.40;0.80;;;15.50;46.00;;;;;;5011863;28;20175;-52
2022/12/26 13:21:34;;;;;;;3.00;1.30;;;15.30;46.10;;;;;;5011809;28;20182;-52
2022/12/26 13:24:23;;;;;;;5.53;1.00;;;15.30;46.50;;;;;;5014365;28;20831;-52
2022/12/26 13:26:48;;;;;;;1.70;0.90;;;15.30;46.40;;;;;;5015564;28;20179;-52
2022/12/26 13:29:38;;;;;;;2.20;0.80;;;15.30;46.30;;;;;;5015620;28;20640;-52
2022/12/26 13:32:32;;;;;;;8.05;1.00;;;15.30;46.50;;;;;;5015214;28;20171;-52
2022/12/26 13:34:59;;;;;;;5.10;0.95;;;15.30;46.70;;;;;;5015399;28;20187;-52
2022/12/26 13:37:53;;;;;;;2.53;0.85;;;15.30;46.70;;;;;;5015395;28;20170;-52
2022/12/26 13:40:21;;;;;;;1.48;0.88;;;15.30;46.70;;;;;;5005677;28;20236;-52
2022/12/26 13:46:35;;;;;;;1.90;1.05;;;15.30;46.80;;;;;;5015219;28;20257;-52
2022/12/26 13:49:01;;;;;;;1.95;0.90;;;15.30;46.80;;;;;;5015147;28;20170;-52
2022/12/26 13:51:46;;;;;;;5.53;1.20;;;15.30;46.80;;;;;;5015145;28;20234;-51
2022/12/26 13:54:13;;;;;;;5.40;1.45;;;15.30;46.70;;;;;;5014935;28;20194;-52
2022/12/26 13:56:39;;;;;;;2.50;1.13;;;15.30;46.90;;;;;;5015020;28;20194;-52
2022/12/26 13:59:16;;;;;;;5.13;1.50;;;15.30;46.90;;;;;;5014994;28;20635;-52
2022/12/26 14:01:45;;;;;;;3.60;1.45;;;15.30;46.90;;;;;;5014885;28;20170;-52
2022/12/26 14:04:22;;;;;;;4.05;2.25;;;15.30;46.90;;;;;;5014746;28;20181;-52
2022/12/26 14:07:06;;;;;;;2.45;1.30;;;15.30;46.90;;;;;;5014846;28;20166;-52
2022/12/26 14:09:39;;;;;;;2.65;1.38;;;15.70;46.90;;;;;;5014891;28;20206;-52
2022/12/26 14:12:25;;;;;;;2.58;1.20;;;15.30;46.90;;;;;;5014475;28;20171;-52
2022/12/26 14:15:22;;;;;;;4.55;1.52;;;15.30;46.70;;;;;;5014570;28;20206;-52
2022/12/26 14:18:05;;;;;;;14.07;6.63;;;15.20;46.60;;;;;;5014581;28;20171;-52
2022/12/26 14:20:46;;;;;;;26.92;16.85;;;15.20;46.70;;;;;;5014630;28;20174;-52
2022/12/26 14:23:27;;;;;;;24.98;11.98;;;15.20;46.70;;;;;;5031629;23;20962;-55
2022/12/26 14:26:02;;;;;;;6.07;2.55;;;15.10;47.00;;;;;;5034036;28;20205;-55
2022/12/26 14:28:52;;;;;;;4.20;2.53;;;15.10;46.70;;;;;;5034351;28;20165;-54
2022/12/26 14:31:28;;;;;;;5.38;2.78;;;15.00;46.70;;;;;;5034122;28;20265;-55
2022/12/26 14:34:10;;;;;;;4.03;3.15;;;14.90;46.90;;;;;;5024319;28;20193;-55
2022/12/26 14:36:56;;;;;;;4.75;3.80;;;14.90;46.90;;;;;;5014363;28;20167;-55
2022/12/26 14:39:30;;;;;;;4.03;2.97;;;14.90;46.80;;;;;;5014472;28;20524;-54
2022/12/26 14:45:04;;;;;;;4.25;2.78;;;14.90;46.90;;;;;;5014061;28;20252;-54
2022/12/26 14:47:47;;;;;;;1.80;1.10;;;14.80;46.90;;;;;;5014186;28;20178;-55
2022/12/26 14:50:31;;;;;;;3.55;1.77;;;14.70;46.90;;;;;;5014028;28;20178;-55
2022/12/26 14:53:19;;;;;;;3.55;3.05;;;14.60;46.80;;;;;;5013702;28;20229;-54
2022/12/26 14:55:49;;;;;;;5.45;2.40;;;14.60;47.00;;;;;;5013990;28;20179;-54
2022/12/26 14:58:30;;;;;;;7.32;3.40;;;14.50;47.20;;;;;;5013826;28;20233;-55
2022/12/26 15:01:17;;;;;;;7.30;3.53;;;14.50;47.30;;;;;;5013901;28;20221;-55
2022/12/26 15:04:13;;;;;;;3.10;2.17;;;14.50;47.40;;;;;;5013449;28;20210;-55
2022/12/26 15:07:14;;;;;;;5.00;3.65;;;14.50;47.50;;;;;;5013654;28;20240;-53
2022/12/26 15:10:18;;;;;;;4.20;3.03;;;14.40;47.70;;;;;;5013621;28;20170;-54
2022/12/26 15:12:55;;;;;;;3.92;2.90;;;14.40;47.50;;;;;;5013298;28;20218;-54
2022/12/26 15:15:21;;;;;;;4.18;2.00;;;14.40;47.40;;;;;;5013590;28;20161;-54
2022/12/26 15:18:20;;;;;;;4.20;3.37;;;14.50;47.20;;;;;;5013575;28;20170;-55
2022/12/26 15:21:20;;;;;;;3.92;3.03;;;14.50;47.00;;;;;;5013510;28;20513;-54
2022/12/26 15:23:55;;;;;;;5.15;3.58;;;14.50;46.80;;;;;;4975737;28;20221;-55
2022/12/26 15:26:53;;;;;;;3.90;3.00;;;14.50;46.80;;;;;;5013335;28;20671;-55
2022/12/26 15:29:27;;;;;;;3.30;2.30;;;14.50;46.70;;;;;;5013336;28;20171;-53
2022/12/26 15:32:26;;;;;;;2.15;1.73;;;14.40;46.60;;;;;;5013073;28;20193;-54
2022/12/26 15:34:57;;;;;;;4.20;2.20;;;14.40;46.30;;;;;;5013233;28;20249;-54
2022/12/26 15:37:55;;;;;;;2.72;1.75;;;14.30;46.60;;;;;;5013088;28;20780;-54